Time;durP1;ratioP1;P1;durP2;ratioP2;P2;SDS_P1;SDS_P2;PMS_P1;PMS_P2;Temp;Humidity;BMP_temperature;BMP_pressure;BME280_temperature;BME280_humidity;BME280_pressure;Samples;Min_cycle;Max_cycle;Signal;HPM_P1;HPM_P2
2022/05/07 00:01:04;;;;;;;;;;;15.80;82.60;;;;;;5029504;28;19922;-70
2022/05/07 00:03:30;;;;;;;;;;;15.80;82.70;;;;;;5032682;28;19910;-70
2022/05/07 00:05:55;;;;;;;;;;;15.70;83.10;;;;;;5033143;28;19928;-70
2022/05/07 00:08:21;;;;;;;;;;;15.70;83.40;;;;;;5028546;28;20388;-71
2022/05/07 00:10:47;;;;;;;;;;;15.60;83.30;;;;;;5029249;28;19921;-71
2022/05/07 00:13:13;;;;;;;;;;;15.50;83.20;;;;;;5028274;28;19948;-69
2022/05/07 00:15:39;;;;;;;;;;;15.50;84.50;;;;;;5030438;28;19999;-71
2022/05/07 00:18:06;;;;;;;;;;;15.50;83.30;;;;;;5033341;28;20013;-69
2022/05/07 00:20:33;;;;;;;;;;;15.40;83.90;;;;;;5030584;28;19936;-70
2022/05/07 00:22:58;;;;;;;;;;;15.40;83.70;;;;;;5030687;28;19913;-72
2022/05/07 00:25:24;;;;;;;;;;;15.40;84.50;;;;;;5031077;28;19959;-72
2022/05/07 00:27:50;;;;;;;;;;;15.40;85.60;;;;;;5030222;28;19913;-71
2022/05/07 00:30:15;;;;;;;;;;;15.30;86.40;;;;;;5032593;28;19956;-70
2022/05/07 00:32:41;;;;;;;;;;;15.20;86.00;;;;;;5028218;28;19917;-70
2022/05/07 00:35:06;;;;;;;;;;;15.20;86.10;;;;;;5027954;28;19967;-70
2022/05/07 00:37:32;;;;;;;;;;;15.10;87.70;;;;;;5029667;28;19964;-69
2022/05/07 00:39:57;;;;;;;;;;;15.00;87.60;;;;;;5027070;28;20599;-70
2022/05/07 00:42:23;;;;;;;;;;;15.00;88.30;;;;;;5038506;28;19916;-69
2022/05/07 00:44:49;;;;;;;;;;;14.90;89.50;;;;;;5028123;28;19944;-68
2022/05/07 00:47:14;;;;;;;;;;;14.90;88.80;;;;;;5028982;28;19925;-69
2022/05/07 00:49:47;;;;;;;;;;;14.80;88.50;;;;;;5027458;28;19913;-69
2022/05/07 00:52:13;;;;;;;;;;;14.80;89.80;;;;;;5028037;28;19921;-69
2022/05/07 00:54:38;;;;;;;;;;;14.80;89.00;;;;;;5029857;28;19956;-70
2022/05/07 00:57:04;;;;;;;;;;;14.80;89.10;;;;;;5030787;28;19941;-68
2022/05/07 00:59:29;;;;;;;;;;;14.80;89.10;;;;;;5028254;28;19983;-68
2022/05/07 01:01:55;;;;;;;;;;;14.70;90.20;;;;;;5029214;28;19944;-68
2022/05/07 01:04:20;;;;;;;;;;;14.70;89.90;;;;;;5031118;28;19913;-69
2022/05/07 01:06:46;;;;;;;;;;;14.60;90.00;;;;;;5030738;28;19925;-68
2022/05/07 01:09:11;;;;;;;;;;;14.60;90.20;;;;;;5030701;28;19954;-68
2022/05/07 01:11:37;;;;;;;;;;;14.60;90.30;;;;;;5028067;28;19913;-69
2022/05/07 01:14:03;;;;;;;;;;;14.50;90.40;;;;;;5029468;28;19952;-68
2022/05/07 01:16:28;;;;;;;;;;;14.50;90.80;;;;;;5026892;28;20007;-68
2022/05/07 01:18:54;;;;;;;;;;;14.40;90.80;;;;;;5029151;28;19921;-69
2022/05/07 01:21:19;;;;;;;;;;;14.40;91.10;;;;;;5032117;28;19920;-68
2022/05/07 01:23:47;;;;;;;;;;;14.40;91.20;;;;;;5026568;28;19982;-67
2022/05/07 01:26:13;;;;;;;;;;;14.30;91.30;;;;;;5025879;28;19917;-67
2022/05/07 01:28:39;;;;;;;;;;;14.30;91.10;;;;;;5028340;28;19913;-70
2022/05/07 01:31:05;;;;;;;;;;;14.30;91.70;;;;;;5030428;28;19924;-69
2022/05/07 01:33:35;;;;;;;;;;;14.20;91.40;;;;;;5036189;28;20333;-68
2022/05/07 01:36:01;;;;;;;;;;;14.20;91.50;;;;;;5028307;28;20325;-68
2022/05/07 01:38:27;;;;;;;;;;;14.20;91.70;;;;;;5029629;28;20006;-69
2022/05/07 01:40:53;;;;;;;;;;;14.20;91.70;;;;;;5029414;28;19956;-70
2022/05/07 01:43:18;;;;;;;;;;;14.10;91.90;;;;;;5026709;28;19917;-69
2022/05/07 01:45:44;;;;;;;;;;;14.10;91.90;;;;;;5027652;28;19921;-70
2022/05/07 01:48:10;;;;;;;;;;;14.10;91.70;;;;;;5049709;28;19921;-69
2022/05/07 01:50:39;;;;;;;;;;;14.10;91.60;;;;;;5027555;28;19913;-69
2022/05/07 01:53:05;;;;;;;;;;;14.10;91.70;;;;;;5025915;28;20436;-69
2022/05/07 01:55:32;;;;;;;;;;;14.10;92.10;;;;;;5029554;28;19960;-69
2022/05/07 01:57:58;;;;;;;;;;;14.10;92.40;;;;;;5029482;28;19967;-69
2022/05/07 02:00:23;;;;;;;;;;;14.10;92.40;;;;;;5030932;28;19925;-68
2022/05/07 02:02:49;;;;;;;;;;;14.00;92.50;;;;;;5027476;28;19913;-69
2022/05/07 02:05:14;;;;;;;;;;;14.00;92.50;;;;;;5029451;28;19920;-68
2022/05/07 02:07:40;;;;;;;;;;;14.00;92.60;;;;;;5029087;28;19945;-68
2022/05/07 02:10:06;;;;;;;;;;;14.00;92.40;;;;;;5026913;28;19935;-69
2022/05/07 02:12:31;;;;;;;;;;;14.00;92.50;;;;;;5029756;28;19956;-70
2022/05/07 02:14:57;;;;;;;;;;;14.00;92.80;;;;;;5030390;28;19909;-66
2022/05/07 02:17:22;;;;;;;;;;;14.00;92.60;;;;;;5029808;28;19917;-67
2022/05/07 02:19:48;;;;;;;;;;;13.90;92.70;;;;;;5025595;28;20063;-70
2022/05/07 02:22:13;;;;;;;;;;;13.90;92.90;;;;;;5029217;28;20023;-69
2022/05/07 02:24:39;;;;;;;;;;;13.80;93.00;;;;;;5029698;28;19956;-68
2022/05/07 02:27:04;;;;;;;;;;;13.80;93.20;;;;;;5028304;28;19913;-69
2022/05/07 02:29:30;;;;;;;;;;;13.80;93.00;;;;;;5029509;28;19913;-69
2022/05/07 02:32:05;;;;;;;;;;;13.80;93.00;;;;;;5029455;28;19974;-70
2022/05/07 02:34:31;;;;;;;;;;;13.80;93.10;;;;;;5026023;28;19913;-68
2022/05/07 02:36:57;;;;;;;;;;;13.70;93.30;;;;;;5028427;28;19920;-70
2022/05/07 02:39:22;;;;;;;;;;;13.70;93.70;;;;;;5030020;28;20473;-71
2022/05/07 02:44:52;;;;;;;;;;;13.60;93.90;;;;;;5011552;28;19921;-68
2022/05/07 02:47:17;;;;;;;;;;;13.60;93.90;;;;;;5009602;28;19999;-68
2022/05/07 02:49:43;;;;;;;;;;;13.50;94.30;;;;;;5011214;28;19925;-67
2022/05/07 02:52:08;;;;;;;;;;;13.50;94.50;;;;;;5010795;28;20374;-68
2022/05/07 02:54:34;;;;;;;;;;;13.50;94.80;;;;;;5008430;28;19916;-68
2022/05/07 02:56:59;;;;;;;;;;;13.40;94.70;;;;;;5009863;28;20321;-67
2022/05/07 02:59:25;;;;;;;;;;;13.40;94.50;;;;;;5011331;28;19918;-70
2022/05/07 03:01:50;;;;;;;;;;;13.40;94.60;;;;;;5010215;28;20445;-69
2022/05/07 03:04:16;;;;;;;;;;;13.40;95.00;;;;;;5010366;28;19917;-70
2022/05/07 03:06:41;;;;;;;;;;;13.40;94.90;;;;;;5009055;28;19910;-67
2022/05/07 03:09:07;;;;;;;;;;;13.40;95.00;;;;;;5009789;28;19964;-67
2022/05/07 03:11:34;;;;;;;;;;;13.40;94.40;;;;;;5012476;28;19917;-68
2022/05/07 03:14:00;;;;;;;;;;;13.40;94.80;;;;;;5014224;28;20012;-68
2022/05/07 03:16:26;;;;;;;;;;;13.40;95.00;;;;;;5026233;28;19917;-68
2022/05/07 03:18:51;;;;;;;;;;;13.40;95.40;;;;;;5029671;28;20866;-70
2022/05/07 03:21:17;;;;;;;;;;;13.40;95.80;;;;;;5032899;28;20374;-69
2022/05/07 03:23:44;;;;;;;;;;;13.40;95.70;;;;;;5040709;28;19999;-71
2022/05/07 03:26:10;;;;;;;;;;;13.40;96.30;;;;;;5036363;28;19956;-68
2022/05/07 03:28:36;;;;;;;;;;;13.30;95.80;;;;;;5032637;28;19920;-68
2022/05/07 03:31:02;;;;;;;;;;;13.30;96.00;;;;;;5028729;28;20000;-68
2022/05/07 03:33:27;;;;;;;;;;;13.30;96.60;;;;;;5032905;28;20008;-69
2022/05/07 03:35:53;;;;;;;;;;;13.30;96.30;;;;;;5029019;28;19956;-70
2022/05/07 03:38:18;;;;;;;;;;;13.20;96.50;;;;;;5031909;28;19917;-67
2022/05/07 03:40:45;;;;;;;;;;;13.20;96.50;;;;;;5028502;28;19948;-68
2022/05/07 03:43:10;;;;;;;;;;;13.20;96.80;;;;;;5028642;28;20347;-68
2022/05/07 03:45:36;;;;;;;;;;;13.20;97.30;;;;;;5031056;28;19956;-68
2022/05/07 03:48:01;;;;;;;;;;;13.20;97.10;;;;;;5031683;28;19932;-68
2022/05/07 03:50:27;;;;;;;;;;;13.20;97.50;;;;;;5031511;28;19925;-67
2022/05/07 03:55:41;;;;;;;;;;;13.10;97.60;;;;;;5031991;28;20289;-68
2022/05/07 03:58:10;;;;;;;;;;;13.20;97.50;;;;;;5032042;28;19971;-69
2022/05/07 04:00:39;;;;;;;;;;;13.10;97.90;;;;;;5032754;28;19928;-69
2022/05/07 04:03:04;;;;;;;;;;;13.10;97.70;;;;;;5030461;28;19910;-69
2022/05/07 04:05:30;;;;;;;;;;;13.10;97.90;;;;;;5034408;28;20369;-69
2022/05/07 04:07:55;;;;;;;;;;;13.10;98.50;;;;;;5020902;28;19913;-67
2022/05/07 04:10:21;;;;;;;;;;;13.00;98.50;;;;;;5030564;28;20007;-69
2022/05/07 04:12:48;;;;;;;;;;;13.00;99.00;;;;;;5028877;28;19963;-67
2022/05/07 04:15:14;;;;;;;;;;;13.00;98.80;;;;;;5032238;28;19937;-68
2022/05/07 04:17:40;;;;;;;;;;;13.00;99.50;;;;;;5027538;28;19919;-68
2022/05/07 04:20:06;;;;;;;;;;;12.90;99.60;;;;;;5029029;28;19921;-69
2022/05/07 04:22:32;;;;;;;;;;;12.90;99.90;;;;;;5030620;28;20000;-70
2022/05/07 04:24:57;;;;;;;;;;;12.90;99.90;;;;;;5027534;28;20037;-69
2022/05/07 04:27:23;;;;;;;;;;;12.90;99.90;;;;;;5032482;28;19936;-68
2022/05/07 04:29:48;;;;;;;;;;;12.80;99.90;;;;;;5029531;28;20408;-68
2022/05/07 04:32:14;;;;;;;;;;;12.80;99.90;;;;;;5027119;28;19965;-69
2022/05/07 04:34:39;;;;;;;;;;;12.80;99.90;;;;;;5031617;28;19971;-69
2022/05/07 04:37:05;;;;;;;;;;;12.70;99.90;;;;;;5029415;28;20400;-68
2022/05/07 04:39:31;;;;;;;;;;;12.70;99.90;;;;;;5031168;28;19913;-68
2022/05/07 04:41:57;;;;;;;;;;;12.70;99.90;;;;;;5029277;28;20496;-68
2022/05/07 04:44:22;;;;;;;;;;;12.70;99.90;;;;;;5028064;28;20007;-69
2022/05/07 04:46:48;;;;;;;;;;;12.70;99.90;;;;;;5030726;28;20115;-69
2022/05/07 04:49:18;;;;;;;;;;;12.70;99.90;;;;;;5031150;28;20390;-68
2022/05/07 04:51:43;;;;;;;;;;;12.70;99.90;;;;;;5029174;28;20325;-70
2022/05/07 04:54:09;;;;;;;;;;;12.60;99.90;;;;;;5030940;28;19909;-70
2022/05/07 04:56:34;;;;;;;;;;;12.60;99.90;;;;;;5031303;28;19913;-68
2022/05/07 04:59:00;;;;;;;;;;;12.60;99.90;;;;;;5031237;28;19916;-69
2022/05/07 05:01:25;;;;;;;;;;;12.70;99.90;;;;;;5028846;28;19913;-67
2022/05/07 05:03:51;;;;;;;;;;;12.60;99.90;;;;;;5030683;28;19932;-68
2022/05/07 05:06:16;;;;;;;;;;;12.60;99.90;;;;;;5032046;28;19915;-67
2022/05/07 05:08:42;;;;;;;;;;;12.60;99.90;;;;;;5027786;28;19996;-69
2022/05/07 05:11:07;;;;;;;;;;;12.60;99.90;;;;;;5027465;28;20267;-69
2022/05/07 05:13:33;;;;;;;;;;;12.60;99.90;;;;;;5030903;28;19921;-69
2022/05/07 05:15:59;;;;;;;;;;;12.60;99.90;;;;;;5030863;28;19917;-68
2022/05/07 05:18:24;;;;;;;;;;;12.60;99.90;;;;;;5032160;28;20075;-69
2022/05/07 05:20:50;;;;;;;;;;;12.60;99.90;;;;;;5028545;28;19923;-69
2022/05/07 05:23:15;;;;;;;;;;;12.60;99.90;;;;;;5030582;28;20289;-67
2022/05/07 05:25:43;;;;;;;;;;;12.60;99.90;;;;;;5029599;28;19913;-68
2022/05/07 05:28:11;;;;;;;;;;;12.60;99.90;;;;;;5031213;28;19936;-68
2022/05/07 05:30:37;;;;;;;;;;;12.60;99.90;;;;;;5030485;28;19909;-69
2022/05/07 05:33:02;;;;;;;;;;;12.70;99.90;;;;;;5031183;28;20452;-70
2022/05/07 05:35:28;;;;;;;;;;;12.70;99.90;;;;;;5026548;28;19913;-69
2022/05/07 05:37:54;;;;;;;;;;;12.70;99.90;;;;;;5030883;28;19917;-68
2022/05/07 05:40:20;;;;;;;;;;;12.80;99.90;;;;;;5026525;28;19928;-66
2022/05/07 05:42:45;;;;;;;;;;;12.80;99.90;;;;;;5028698;28;19922;-67
2022/05/07 05:45:11;;;;;;;;;;;12.80;99.90;;;;;;5029892;28;19954;-69
2022/05/07 05:47:36;;;;;;;;;;;12.90;99.90;;;;;;5030454;28;19921;-68
2022/05/07 05:50:03;;;;;;;;;;;12.90;99.90;;;;;;5029031;28;19944;-67
2022/05/07 05:52:28;;;;;;;;;;;12.90;99.90;;;;;;5028688;28;20003;-68
2022/05/07 05:54:54;;;;;;;;;;;12.90;99.90;;;;;;5029637;28;20397;-69
2022/05/07 05:57:19;;;;;;;;;;;12.90;99.90;;;;;;5044612;28;20015;-67
2022/05/07 05:59:45;;;;;;;;;;;13.00;99.90;;;;;;5036999;28;20015;-66
2022/05/07 06:02:10;;;;;;;;;;;13.00;99.90;;;;;;5033447;28;19995;-67
2022/05/07 06:04:36;;;;;;;;;;;13.00;99.90;;;;;;5030483;28;20251;-67
2022/05/07 06:07:01;;;;;;;;;;;13.10;99.90;;;;;;5030474;28;19948;-67
2022/05/07 06:09:28;;;;;;;;;;;13.10;99.90;;;;;;5030688;28;20286;-68
2022/05/07 06:11:56;;;;;;;;;;;13.10;99.90;;;;;;5028515;28;19913;-68
2022/05/07 06:14:22;;;;;;;;;;;13.10;99.90;;;;;;5030370;28;19920;-68
2022/05/07 06:16:48;;;;;;;;;;;13.10;99.90;;;;;;5025382;28;19913;-60
2022/05/07 06:19:13;;;;;;;;;;;13.10;99.90;;;;;;5026598;28;19943;-63
2022/05/07 06:21:39;;;;;;;;;;;13.10;99.90;;;;;;5044005;28;20354;-59
2022/05/07 06:29:33;;;;;;;;;;;13.30;99.90;;;;;;5027763;28;20368;-60
2022/05/07 06:31:58;;;;;;;;;;;13.30;99.90;;;;;;5030738;28;19913;-59
2022/05/07 06:34:24;;;;;;;;;;;13.40;99.90;;;;;;5028792;28;19924;-60
2022/05/07 06:36:49;;;;;;;;;;;13.40;99.90;;;;;;5032949;28;19943;-59
2022/05/07 06:39:20;;;;;;;;;;;13.50;99.90;;;;;;5034712;28;19913;-61
2022/05/07 06:41:46;;;;;;;;;;;13.50;99.90;;;;;;5030595;28;19923;-59
2022/05/07 06:44:11;;;;;;;;;;;13.50;99.90;;;;;;5030411;28;20302;-58
2022/05/07 06:46:37;;;;;;;;;;;13.60;99.90;;;;;;5038309;28;19913;-60
2022/05/07 06:49:03;;;;;;;;;;;13.60;99.90;;;;;;5038099;28;19921;-61
2022/05/07 06:51:28;;;;;;;;;;;13.60;99.90;;;;;;5052700;28;20295;-61
2022/05/07 06:53:54;;;;;;;;;;;13.70;99.90;;;;;;5038450;28;19909;-59
2022/05/07 06:56:19;;;;;;;;;;;13.60;99.90;;;;;;5023682;28;19917;-57
2022/05/07 06:58:45;;;;;;;;;;;13.60;99.90;;;;;;5026516;28;19917;-59
2022/05/07 07:01:11;;;;;;;;;;;13.60;99.90;;;;;;5027223;28;19925;-59
2022/05/07 07:03:37;;;;;;;;;;;13.50;99.90;;;;;;5025702;28;19916;-58
2022/05/07 07:06:03;;;;;;;;;;;13.50;99.90;;;;;;5026481;28;19914;-59
2022/05/07 07:08:29;;;;;;;;;;;13.60;99.90;;;;;;5023805;28;20493;-58
2022/05/07 07:10:55;;;;;;;;;;;13.60;99.90;;;;;;5027196;28;19927;-58
2022/05/07 07:13:20;;;;;;;;;;;13.50;99.90;;;;;;5023334;28;19916;-59
2022/05/07 07:15:46;;;;;;;;;;;13.50;99.90;;;;;;5025187;28;21211;-58
2022/05/07 07:18:11;;;;;;;;;;;13.50;99.90;;;;;;5024222;28;19975;-58
2022/05/07 07:20:38;;;;;;;;;;;13.50;99.90;;;;;;5022058;28;19922;-58
2022/05/07 07:23:04;;;;;;;;;;;13.50;99.90;;;;;;5019977;28;20306;-59
2022/05/07 07:25:30;;;;;;;;;;;13.50;99.90;;;;;;5024220;28;20362;-58
2022/05/07 07:27:55;;;;;;;;;;;13.50;99.90;;;;;;5027485;28;20000;-59
2022/05/07 07:30:21;;;;;;;;;;;13.60;99.90;;;;;;5026886;28;19920;-58
2022/05/07 07:32:46;;;;;;;;;;;13.60;99.90;;;;;;5026796;28;20302;-59
2022/05/07 07:35:12;;;;;;;;;;;13.60;99.90;;;;;;5027298;28;19913;-58
2022/05/07 07:37:37;;;;;;;;;;;13.60;99.90;;;;;;5026066;28;19920;-57
2022/05/07 07:40:04;;;;;;;;;;;13.60;99.90;;;;;;5025959;28;19925;-59
2022/05/07 07:42:30;;;;;;;;;;;13.70;99.90;;;;;;5026913;28;19920;-58
2022/05/07 07:50:24;;;;;;;;;;;13.80;99.90;;;;;;5026880;28;20491;-58
2022/05/07 07:52:53;;;;;;;;;;;13.80;99.90;;;;;;5026765;28;19913;-57
2022/05/07 07:55:19;;;;;;;;;;;13.90;99.90;;;;;;5023770;28;19954;-57
2022/05/07 07:57:45;;;;;;;;;;;14.00;99.90;;;;;;5023221;28;19999;-57
2022/05/07 08:00:11;;;;;;;;;;;14.00;99.90;;;;;;5025505;28;21065;-57
2022/05/07 08:02:45;;;;;;;;;;;14.10;99.90;;;;;;5026560;28;19917;-57
2022/05/07 08:05:11;;;;;;;;;;;14.10;99.90;;;;;;5022247;28;20433;-57
2022/05/07 08:13:05;;;;;;;;;;;14.30;99.90;;;;;;5020117;28;20453;-58
2022/05/07 08:15:30;;;;;;;;;;;14.30;99.90;;;;;;5026011;28;19917;-57
2022/05/07 08:17:56;;;;;;;;;;;14.30;99.90;;;;;;5012894;28;19967;-58
2022/05/07 08:20:21;;;;;;;;;;;14.30;99.90;;;;;;5024724;28;19961;-58
2022/05/07 08:22:47;;;;;;;;;;;14.40;99.90;;;;;;5017523;28;20408;-57
2022/05/07 08:25:12;;;;;;;;;;;14.40;99.90;;;;;;5022541;28;19913;-58
2022/05/07 08:27:38;;;;;;;;;;;14.40;99.90;;;;;;5026942;28;20355;-57
2022/05/07 08:30:04;;;;;;;;;;;14.50;99.90;;;;;;5027283;28;19962;-57
2022/05/07 08:32:29;;;;;;;;;;;14.50;99.90;;;;;;5027468;28;19913;-58
2022/05/07 08:34:55;;;;;;;;;;;14.60;99.90;;;;;;5025529;28;19920;-61
2022/05/07 08:37:20;;;;;;;;;;;14.60;99.90;;;;;;5021186;28;19986;-58
2022/05/07 08:39:46;;;;;;;;;;;14.70;99.90;;;;;;5022959;28;19972;-60
2022/05/07 08:42:11;;;;;;;;;;;14.70;99.90;;;;;;5025667;28;19923;-58
2022/05/07 08:44:37;;;;;;;;;;;14.70;99.90;;;;;;5023646;28;19913;-59
2022/05/07 08:47:04;;;;;;;;;;;14.70;99.90;;;;;;5021711;28;19921;-59
2022/05/07 08:49:29;;;;;;;;;;;14.70;99.90;;;;;;5023947;28;19917;-59
2022/05/07 08:51:55;;;;;;;;;;;14.80;99.90;;;;;;5023908;28;19920;-58
2022/05/07 08:54:20;;;;;;;;;;;14.80;99.90;;;;;;5022824;28;20550;-59
2022/05/07 08:56:46;;;;;;;;;;;14.90;99.90;;;;;;5025335;28;20008;-59
2022/05/07 08:59:13;;;;;;;;;;;15.00;99.90;;;;;;5027750;28;19928;-59
2022/05/07 09:01:38;;;;;;;;;;;15.00;99.90;;;;;;5021758;28;20297;-60
2022/05/07 09:04:10;;;;;;;;;;;15.10;99.90;;;;;;5019043;28;19922;-59
2022/05/07 09:06:36;;;;;;;;;;;15.20;99.90;;;;;;5024527;28;20393;-59
2022/05/07 09:09:04;;;;;;;;;;;15.20;99.90;;;;;;5022103;28;19933;-59
2022/05/07 09:11:38;;;;;;;;;;;15.30;99.90;;;;;;5022088;28;19936;-60
2022/05/07 09:14:06;;;;;;;;;;;15.40;99.90;;;;;;5021850;28;19917;-59
2022/05/07 09:16:46;;;;;;;;;;;15.40;99.90;;;;;;5024073;28;19964;-59
2022/05/07 09:19:37;;;;;;;;;;;15.50;99.90;;;;;;5019724;28;19922;-59
2022/05/07 09:22:06;;;;;;;;;;;15.50;99.90;;;;;;5023113;28;19921;-59
2022/05/07 09:24:32;;;;;;;;;;;15.50;99.90;;;;;;5020495;28;19984;-57
2022/05/07 09:26:57;;;;;;;;;;;15.60;99.90;;;;;;5021337;28;19917;-59
2022/05/07 09:29:26;;;;;;;;;;;15.60;99.90;;;;;;5024236;28;19948;-59
2022/05/07 09:31:51;;;;;;;;;;;15.60;99.90;;;;;;5023934;28;19917;-58
2022/05/07 09:37:18;;;;;;;;;;;15.50;99.90;;;;;;5023434;28;19923;-59
2022/05/07 09:39:47;;;;;;;;;;;15.60;99.90;;;;;;5022824;28;20397;-59
2022/05/07 09:42:22;;;;;;;;;;;15.60;99.90;;;;;;5028492;28;20015;-59
2022/05/07 09:44:48;;;;;;;;;;;15.70;99.90;;;;;;5026980;28;19936;-59
2022/05/07 09:47:14;;;;;;;;;;;15.70;99.90;;;;;;5021657;28;20365;-59
2022/05/07 09:52:35;;;;;;;;;;;15.90;99.90;;;;;;4993756;28;19918;-59
2022/05/07 09:57:49;;;;;;;;;;;16.10;99.90;;;;;;4987600;28;19948;-59
2022/05/07 10:00:17;;;;;;;;;;;16.20;99.90;;;;;;4989244;28;20005;-58
2022/05/07 10:02:48;;;;;;;;;;;16.30;99.90;;;;;;4987800;28;19953;-58
2022/05/07 10:05:13;;;;;;;;;;;16.30;99.90;;;;;;4987815;28;19914;-58
2022/05/07 10:07:57;;;;;;;;;;;16.40;99.90;;;;;;4988133;28;19914;-59
2022/05/07 10:10:25;;;;;;;;;;;16.50;99.90;;;;;;4986819;28;19913;-59
2022/05/07 10:12:59;;;;;;;;;;;16.70;99.90;;;;;;4991193;28;19913;-60
2022/05/07 10:15:25;;;;;;;;;;;16.90;99.90;;;;;;4988918;28;19981;-59
2022/05/07 10:18:20;;;;;;;;;;;17.00;99.90;;;;;;4987282;28;20318;-59
2022/05/07 10:20:46;;;;;;;;;;;17.10;99.10;;;;;;4977650;28;19948;-58
2022/05/07 10:23:13;;;;;;;;;;;17.10;99.10;;;;;;4990810;28;19914;-59
2022/05/07 10:25:39;;;;;;;;;;;17.20;99.10;;;;;;4992292;28;20399;-59
2022/05/07 10:28:12;;;;;;;;;;;17.30;98.40;;;;;;4991909;28;20016;-58
2022/05/07 10:30:47;;;;;;;;;;;17.40;99.20;;;;;;5030146;28;20022;-59
2022/05/07 10:33:12;;;;;;;;;;;17.50;99.10;;;;;;5026682;28;20427;-59
2022/05/07 10:35:40;;;;;;;;;;;17.60;98.40;;;;;;5027379;28;19914;-59
2022/05/07 10:38:09;;;;;;;;;;;17.70;98.20;;;;;;5022868;28;19927;-59
2022/05/07 10:40:35;;;;;;;;;;;17.80;97.90;;;;;;5026398;28;19928;-59
2022/05/07 10:43:00;;;;;;;;;;;17.90;98.30;;;;;;5026179;28;19917;-59
2022/05/07 10:45:27;;;;;;;;;;;18.00;97.80;;;;;;5032697;28;19913;-58
2022/05/07 10:47:53;;;;;;;;;;;18.10;97.50;;;;;;5029294;28;19929;-59
2022/05/07 10:50:21;;;;;;;;;;;18.10;97.40;;;;;;5026646;28;19913;-58
2022/05/07 10:52:53;;;;;;;;;;;18.20;96.90;;;;;;5030026;28;20054;-59
2022/05/07 10:55:23;;;;;;;;;;;18.20;96.80;;;;;;5020895;28;20456;-58
2022/05/07 10:57:49;;;;;;;;;;;18.20;96.20;;;;;;5023948;28;19921;-58
2022/05/07 11:00:14;;;;;;;;;;;18.30;96.80;;;;;;5030230;28;19921;-60
2022/05/07 11:02:40;;;;;;;;;;;18.30;96.40;;;;;;5027995;28;19917;-58
2022/05/07 11:05:06;;;;;;;;;;;18.40;95.70;;;;;;5022069;28;19952;-60
2022/05/07 11:07:32;;;;;;;;;;;18.30;95.50;;;;;;5026632;28;20274;-59
2022/05/07 11:09:58;;;;;;;;;;;18.30;95.80;;;;;;5022982;28;20007;-59
2022/05/07 11:12:26;;;;;;;;;;;18.40;95.80;;;;;;5027828;28;20386;-59
2022/05/07 11:14:52;;;;;;;;;;;18.40;95.00;;;;;;5026111;28;19976;-66
2022/05/07 11:17:27;;;;;;;;;;;18.40;95.70;;;;;;5026983;28;19921;-65
2022/05/07 11:19:53;;;;;;;;;;;18.50;95.60;;;;;;5025437;28;20361;-66
2022/05/07 11:22:23;;;;;;;;;;;18.60;94.70;;;;;;5024149;28;19921;-66
2022/05/07 11:24:55;;;;;;;;;;;18.60;94.60;;;;;;5023366;28;19921;-65
2022/05/07 11:27:20;;;;;;;;;;;18.60;94.70;;;;;;5025359;28;19920;-65
2022/05/07 11:29:46;;;;;;;;;;;18.60;94.60;;;;;;5021376;28;19918;-66
2022/05/07 11:32:12;;;;;;;;;;;18.70;95.00;;;;;;5023865;28;19917;-64
2022/05/07 11:34:38;;;;;;;;;;;18.70;94.10;;;;;;5029586;28;19939;-60
2022/05/07 11:37:20;;;;;;;;;;;18.80;93.80;;;;;;5029475;28;19916;-60
2022/05/07 11:40:00;;;;;;;;;;;18.80;94.00;;;;;;5026899;28;19965;-61
2022/05/07 11:42:36;;;;;;;;;;;18.90;94.30;;;;;;5027185;28;19932;-62
2022/05/07 11:45:31;;;;;;;;;;;18.90;93.40;;;;;;5031309;28;19959;-61
2022/05/07 11:48:04;;;;;;;;;;;18.90;93.50;;;;;;5026325;28;19925;-64
2022/05/07 11:50:33;;;;;;;;;;;19.00;94.10;;;;;;5029135;28;19917;-59
2022/05/07 11:53:09;;;;;;;;;;;19.10;94.10;;;;;;5027545;28;19913;-58
2022/05/07 11:55:35;;;;;;;;;;;19.10;93.70;;;;;;5027466;28;19921;-58
2022/05/07 11:58:12;;;;;;;;;;;19.10;93.80;;;;;;5024116;28;19913;-58
2022/05/07 12:00:40;;;;;;;;;;;19.10;93.20;;;;;;5022724;28;20011;-56
2022/05/07 12:03:05;;;;;;;;;;;19.10;93.40;;;;;;5027730;28;19944;-58
2022/05/07 12:05:44;;;;;;;;;;;19.20;93.50;;;;;;5023124;28;19917;-58
2022/05/07 12:08:14;;;;;;;;;;;19.20;93.20;;;;;;5030625;28;19977;-57
2022/05/07 12:10:39;;;;;;;;;;;19.10;93.00;;;;;;5023576;28;19919;-59
2022/05/07 12:13:05;;;;;;;;;;;19.10;92.30;;;;;;5018909;28;19921;-59
2022/05/07 12:18:14;;;;;;;;;;;19.10;93.10;;;;;;5024886;28;19987;-59
2022/05/07 12:20:40;;;;;;;;;;;19.10;93.20;;;;;;5026272;28;20365;-59
2022/05/07 12:31:18;;;;;;;;;;;19.10;92.40;;;;;;5020340;28;19923;-59
2022/05/07 12:33:44;;;;;;;;;;;19.00;92.20;;;;;;5020271;28;20024;-58
2022/05/07 12:36:09;;;;;;;;;;;19.00;92.20;;;;;;5029664;28;19913;-59
2022/05/07 12:38:35;;;;;;;;;;;19.00;91.90;;;;;;5025449;28;19924;-59
2022/05/07 12:41:00;;;;;;;;;;;19.00;92.30;;;;;;5026144;28;19921;-59
2022/05/07 12:43:26;;;;;;;;;;;19.00;92.50;;;;;;5023356;28;20386;-59
2022/05/07 12:45:52;;;;;;;;;;;19.10;92.30;;;;;;5022371;28;19920;-58
2022/05/07 12:48:18;;;;;;;;;;;19.20;92.30;;;;;;5026731;28;19945;-58
2022/05/07 12:50:46;;;;;;;;;;;19.10;91.60;;;;;;5023433;28;19917;-59
2022/05/07 12:53:11;;;;;;;;;;;19.10;90.70;;;;;;5024904;28;19921;-58
2022/05/07 12:55:37;;;;;;;;;;;19.10;91.00;;;;;;5022962;28;19913;-57
2022/05/07 12:58:04;;;;;;;;;;;19.20;91.40;;;;;;5022686;28;20030;-58
2022/05/07 13:00:30;;;;;;;;;;;19.30;90.90;;;;;;5024628;28;19929;-57
2022/05/07 13:03:00;;;;;;;;;;;19.40;91.00;;;;;;5021082;28;20115;-57
2022/05/07 13:05:26;;;;;;;;;;;19.50;91.20;;;;;;5021245;28;19913;-59
2022/05/07 13:07:51;;;;;;;;;;;19.60;90.90;;;;;;5028329;28;20011;-59
2022/05/07 13:10:17;;;;;;;;;;;19.60;90.30;;;;;;5026327;28;20004;-59
2022/05/07 13:12:46;;;;;;;;;;;19.60;90.10;;;;;;5014517;28;20338;-59
2022/05/07 13:15:11;;;;;;;;;;;19.60;90.60;;;;;;5026707;28;19917;-59
2022/05/07 13:17:37;;;;;;;;;;;19.70;90.30;;;;;;5023790;28;19913;-59
2022/05/07 13:20:03;;;;;;;;;;;19.80;90.40;;;;;;5022642;28;19921;-58
2022/05/07 13:22:30;;;;;;;;;;;19.80;90.00;;;;;;5021862;28;19921;-59
2022/05/07 13:24:56;;;;;;;;;;;19.70;89.90;;;;;;5020880;28;19927;-55
2022/05/07 13:27:21;;;;;;;;;;;19.70;90.00;;;;;;5024877;28;20004;-59
2022/05/07 13:29:47;;;;;;;;;;;19.80;90.30;;;;;;5019231;28;19979;-58
2022/05/07 13:32:12;;;;;;;;;;;19.80;88.80;;;;;;5018295;28;19917;-59
2022/05/07 13:34:38;;;;;;;;;;;19.80;86.90;;;;;;5023057;28;19925;-57
2022/05/07 13:37:03;;;;;;;;;;;19.70;87.10;;;;;;5024634;28;19927;-59
2022/05/07 13:39:29;;;;;;;;;;;19.70;86.40;;;;;;5024104;28;19921;-59
2022/05/07 13:41:56;;;;;;;;;;;19.70;85.40;;;;;;5024514;28;20297;-60
2022/05/07 13:44:22;;;;;;;;;;;19.70;84.90;;;;;;5023026;28;19960;-58
2022/05/07 13:46:47;;;;;;;;;;;19.60;84.10;;;;;;5020536;28;19914;-59
2022/05/07 13:49:13;;;;;;;;;;;19.60;82.10;;;;;;5024822;28;19917;-58
2022/05/07 13:51:39;;;;;;;;;;;19.50;82.70;;;;;;5024492;28;19914;-59
2022/05/07 13:54:04;;;;;;;;;;;19.60;83.20;;;;;;5022719;28;19944;-59
2022/05/07 13:56:30;;;;;;;;;;;19.50;82.70;;;;;;5019939;28;19984;-59
2022/05/07 13:58:55;;;;;;;;;;;19.50;79.50;;;;;;5024848;28;19917;-58
2022/05/07 14:01:21;;;;;;;;;;;19.40;79.30;;;;;;5019011;28;19929;-58
2022/05/07 14:03:46;;;;;;;;;;;19.40;78.70;;;;;;5019375;28;19971;-59
2022/05/07 14:06:17;;;;;;;;;;;19.40;80.30;;;;;;5024341;28;19925;-59
2022/05/07 14:08:42;;;;;;;;;;;19.50;80.90;;;;;;5022989;28;20686;-59
2022/05/07 14:11:08;;;;;;;;;;;19.60;80.70;;;;;;5022999;28;19917;-59
2022/05/07 14:13:34;;;;;;;;;;;19.60;76.80;;;;;;5016618;28;20356;-59
2022/05/07 14:15:59;;;;;;;;;;;19.70;78.20;;;;;;5021076;28;19914;-59
2022/05/07 14:18:25;;;;;;;;;;;19.70;73.30;;;;;;5021485;28;19924;-59
2022/05/07 14:20:50;;;;;;;;;;;19.60;73.30;;;;;;5020644;28;19977;-58
2022/05/07 14:23:16;;;;;;;;;;;19.50;71.30;;;;;;5031798;28;19920;-59
2022/05/07 14:25:42;;;;;;;;;;;19.40;70.50;;;;;;5022915;28;19917;-58
2022/05/07 14:28:08;;;;;;;;;;;19.40;71.90;;;;;;5024634;28;19965;-59
2022/05/07 14:30:33;;;;;;;;;;;19.40;71.30;;;;;;5023205;28;19924;-59
2022/05/07 14:32:59;;;;;;;;;;;19.40;70.30;;;;;;5027183;28;20400;-57
2022/05/07 14:35:24;;;;;;;;;;;19.40;71.70;;;;;;5022546;28;19921;-58
2022/05/07 14:37:49;;;;;;;;;;;19.40;71.10;;;;;;5022993;28;19960;-58
2022/05/07 14:40:34;;;;;;;;;;;19.50;73.00;;;;;;5027923;28;19921;-58
2022/05/07 14:43:03;;;;;;;;;;;19.60;72.30;;;;;;5018581;28;19914;-56
2022/05/07 14:45:29;;;;;;;;;;;19.70;71.90;;;;;;5020216;28;19921;-59
2022/05/07 14:47:55;;;;;;;;;;;19.70;68.90;;;;;;5026431;28;19978;-58
2022/05/07 14:50:24;;;;;;;;;;;19.70;72.40;;;;;;5024593;28;19913;-58
2022/05/07 14:52:50;;;;;;;;;;;19.70;71.40;;;;;;5023871;28;20410;-58
2022/05/07 14:55:15;;;;;;;;;;;19.80;71.40;;;;;;5024530;28;19968;-58